Cheraw, South Carolina
Current Conditions -  °F | °C
As of 8:35 AM on Saturday 20 Dec 2014 (Local Time) from KCQW Reporting Station
Light Rain Light Rain  
Wind Chill: 36°   Ceiling: 4500
Heat Index: 39°   Visibility: 5mi
Dew Point: 37°   Wind: 5mph
Humidity: 93%   Direction: 40°NE
Pressure: 30.24"   Gusts: NA
Location:  34.7°N, 79.88°W
Report Text: KCQW 201335Z AUTO 04004KT 5SM -RA OVC045 04/03 A3024 RMK AO2 P0001
Loading
Personal Weather Stations






























Interactive Weather Map New forecast layout! Learn more

10-Day Weather Forecast

Advertisements
Track Severe Weather on mobile